createdAt,value
2023-05-03T00:01:00.140Z,6.93
2023-05-03T00:03:29.214Z,7.88
2023-05-03T00:05:58.592Z,5.75
2023-05-03T00:08:29.405Z,4.30
2023-05-03T00:11:01.327Z,4.45
2023-05-03T00:13:30.137Z,5.05
2023-05-03T00:15:59.233Z,4.80
2023-05-03T00:18:28.097Z,4.78
2023-05-03T00:20:57.239Z,5.78
2023-05-03T00:23:26.888Z,6.35
2023-05-03T00:25:58.310Z,5.45
2023-05-03T00:28:27.512Z,6.75
2023-05-03T00:30:56.502Z,4.80
2023-05-03T00:33:25.288Z,7.22
2023-05-03T00:35:54.173Z,6.07
2023-05-03T00:38:22.983Z,7.55
2023-05-03T00:40:56.737Z,6.07
2023-05-03T00:43:25.679Z,9.77
2023-05-03T00:45:59.383Z,5.75
2023-05-03T00:48:37.488Z,6.50
2023-05-03T00:51:07.864Z,7.68
2023-05-03T00:53:36.925Z,6.18
2023-05-03T00:56:08.234Z,5.65
2023-05-03T00:58:40.312Z,6.75
2023-05-03T01:01:09.640Z,3.92
2023-05-03T01:03:42.023Z,5.88
2023-05-03T01:06:19.048Z,6.85
2023-05-03T01:08:56.041Z,7.88
2023-05-03T01:11:34.187Z,6.15
2023-05-03T01:14:10.291Z,6.28
2023-05-03T01:16:45.590Z,4.53
2023-05-03T01:19:26.995Z,6.78
2023-05-03T01:22:04.817Z,4.90
2023-05-03T01:24:38.714Z,6.00
2023-05-03T01:27:09.771Z,6.82
2023-05-03T01:29:38.650Z,7.07
2023-05-03T01:32:16.778Z,4.47
2023-05-03T01:34:52.457Z,6.75
2023-05-03T01:37:21.932Z,5.20
2023-05-03T01:39:57.070Z,5.13
2023-05-03T01:42:28.656Z,11.48
2023-05-03T01:44:58.098Z,6.78
2023-05-03T01:47:27.155Z,4.18
2023-05-03T01:49:55.937Z,8.45
2023-05-03T01:52:25.125Z,4.30
2023-05-03T01:54:54.116Z,9.02
2023-05-03T01:57:23.262Z,7.45
2023-05-03T01:59:53.668Z,5.85
2023-05-03T02:02:22.722Z,4.30
2023-05-03T02:04:51.607Z,5.03
2023-05-03T02:07:20.817Z,7.70
2023-05-03T02:09:50.128Z,4.95
2023-05-03T02:12:19.209Z,4.65
2023-05-03T02:14:49.188Z,7.63
2023-05-03T02:17:21.072Z,5.85
2023-05-03T02:19:50.037Z,4.82
2023-05-03T02:22:19.254Z,4.90
2023-05-03T02:24:49.742Z,3.72
2023-05-03T02:27:18.887Z,5.18
2023-05-03T02:29:47.806Z,4.45
2023-05-03T02:32:17.152Z,5.38
2023-05-03T02:34:50.769Z,6.75
2023-05-03T02:37:22.835Z,6.47
2023-05-03T02:39:51.954Z,8.65
2023-05-03T02:42:20.967Z,4.72
2023-05-03T02:44:51.148Z,4.80
2023-05-03T02:47:21.509Z,6.63
2023-05-03T02:49:52.368Z,6.43
2023-05-03T02:52:24.132Z,3.97
2023-05-03T02:54:53.363Z,5.55
2023-05-03T02:57:22.867Z,4.80
2023-05-03T02:59:52.067Z,4.80
2023-05-03T03:02:22.096Z,6.75
2023-05-03T03:04:53.358Z,5.07
2023-05-03T03:07:22.269Z,7.28
2023-05-03T03:09:56.828Z,6.47
2023-05-03T03:12:26.422Z,4.95
2023-05-03T03:14:56.529Z,5.32
2023-05-03T03:17:26.526Z,5.43
2023-05-03T03:19:58.325Z,5.47
2023-05-03T03:22:28.052Z,5.03
2023-05-03T03:24:57.062Z,8.20
2023-05-03T03:27:26.151Z,5.85
2023-05-03T03:29:55.204Z,5.75
2023-05-03T03:32:24.528Z,9.20
2023-05-03T03:34:56.199Z,6.15
2023-05-03T03:37:25.083Z,8.35
2023-05-03T03:39:55.902Z,4.80
2023-05-03T03:42:25.991Z,7.95
2023-05-03T03:44:55.173Z,6.10
2023-05-03T03:47:24.276Z,9.55
2023-05-03T03:49:53.383Z,8.07
2023-05-03T03:52:23.942Z,10.35
2023-05-03T03:54:52.748Z,5.55
2023-05-03T03:57:21.727Z,6.72
2023-05-03T03:59:50.585Z,8.48
2023-05-03T04:02:19.763Z,8.15
2023-05-03T04:04:48.850Z,6.05
2023-05-03T04:07:19.826Z,7.70
2023-05-03T04:09:50.467Z,6.25
2023-05-03T04:12:20.033Z,5.85
2023-05-03T04:14:48.956Z,7.70
2023-05-03T04:17:17.870Z,7.28
2023-05-03T04:19:47.264Z,5.10
2023-05-03T04:22:16.587Z,8.02
2023-05-03T04:24:46.015Z,6.82
2023-05-03T04:27:18.233Z,7.97
2023-05-03T04:29:49.125Z,8.35
2023-05-03T04:32:23.291Z,6.35
2023-05-03T04:34:55.167Z,7.28
2023-05-03T04:37:27.602Z,6.53
2023-05-03T04:39:56.504Z,7.20
2023-05-03T04:42:27.054Z,4.72
2023-05-03T04:44:56.110Z,6.50
2023-05-03T04:47:25.287Z,7.88
2023-05-03T04:49:54.962Z,8.98
2023-05-03T04:52:23.953Z,6.97
2023-05-03T04:54:53.143Z,7.95
2023-05-03T04:57:22.642Z,6.40
2023-05-03T04:59:54.082Z,7.97
2023-05-03T05:02:23.699Z,7.53
2023-05-03T05:04:52.568Z,8.70
2023-05-03T05:07:22.221Z,10.70
2023-05-03T05:09:51.418Z,6.88
2023-05-03T05:12:20.311Z,6.70
2023-05-03T05:14:49.586Z,8.73
2023-05-03T05:17:20.387Z,5.57
2023-05-03T05:19:49.809Z,6.72
2023-05-03T05:22:19.853Z,6.90
2023-05-03T05:24:55.248Z,7.95
2023-05-03T05:27:25.445Z,7.88
2023-05-03T05:29:56.193Z,7.32
2023-05-03T05:32:27.160Z,5.60
2023-05-03T05:34:56.570Z,7.40
2023-05-03T05:37:28.777Z,7.03
2023-05-03T05:40:01.843Z,6.60
2023-05-03T05:42:37.250Z,8.93
2023-05-03T05:45:08.327Z,7.57
2023-05-03T05:47:39.834Z,10.93
2023-05-03T05:50:17.657Z,11.80
2023-05-03T05:52:53.198Z,7.00
2023-05-03T05:55:23.541Z,15.00
2023-05-03T05:57:53.703Z,10.80
2023-05-03T06:00:26.824Z,8.88
2023-05-03T06:02:57.290Z,15.73
2023-05-03T06:05:26.875Z,13.50
2023-05-03T06:07:55.986Z,10.43
2023-05-03T06:10:25.194Z,9.07
2023-05-03T06:12:56.464Z,12.75
2023-05-03T06:15:27.860Z,8.15
2023-05-03T06:17:58.740Z,10.88
2023-05-03T06:20:27.659Z,8.88
2023-05-03T06:22:57.552Z,12.25
2023-05-03T06:25:26.797Z,11.27
2023-05-03T06:27:56.104Z,8.88
2023-05-03T06:30:28.739Z,11.30
2023-05-03T06:33:05.373Z,7.70
2023-05-03T06:35:37.537Z,11.60
2023-05-03T06:38:06.840Z,10.00
2023-05-03T06:40:38.349Z,10.95
2023-05-03T06:43:07.650Z,12.15
2023-05-03T06:45:41.048Z,11.50
2023-05-03T06:48:11.660Z,13.02
2023-05-03T06:50:41.235Z,8.52
2023-05-03T06:53:10.772Z,10.27
2023-05-03T06:55:39.774Z,10.15
2023-05-03T06:58:10.317Z,8.98
2023-05-03T07:00:40.149Z,10.82
2023-05-03T07:03:10.632Z,14.00
2023-05-03T07:05:39.731Z,10.65
2023-05-03T07:08:08.679Z,11.32
2023-05-03T07:10:37.713Z,10.80
2023-05-03T07:13:06.571Z,12.77
2023-05-03T07:15:36.468Z,12.95
2023-05-03T07:18:05.486Z,10.85
2023-05-03T07:20:36.894Z,10.82
2023-05-03T07:23:06.728Z,13.77
2023-05-03T07:25:35.967Z,15.63
2023-05-03T07:28:05.086Z,11.98
2023-05-03T07:30:33.815Z,9.88
2023-05-03T07:33:02.820Z,11.02
2023-05-03T07:35:33.145Z,11.13
2023-05-03T07:38:03.324Z,13.50
2023-05-03T07:40:33.514Z,11.30
2023-05-03T07:43:03.146Z,10.35
2023-05-03T07:45:32.116Z,15.35
2023-05-03T07:48:01.198Z,12.02
2023-05-03T07:50:30.631Z,15.93
2023-05-03T07:52:59.549Z,11.80
2023-05-03T07:55:31.455Z,10.23
2023-05-03T07:58:00.328Z,9.48
2023-05-03T08:00:29.316Z,15.23
2023-05-03T08:02:58.295Z,11.35
2023-05-03T08:05:27.596Z,10.75
2023-05-03T08:07:56.792Z,11.45
2023-05-03T08:10:25.619Z,14.40
2023-05-03T08:12:55.904Z,14.32
2023-05-03T08:15:24.843Z,15.05
2023-05-03T08:17:54.072Z,10.55
2023-05-03T08:20:27.516Z,18.40
2023-05-03T08:22:56.988Z,16.08
2023-05-03T08:25:26.236Z,12.00
2023-05-03T08:27:57.894Z,18.73
2023-05-03T08:30:27.194Z,10.18
2023-05-03T08:32:56.427Z,11.43
2023-05-03T08:35:25.925Z,12.30
2023-05-03T08:37:55.063Z,13.32
2023-05-03T08:40:24.092Z,17.88
2023-05-03T08:42:53.833Z,13.85
2023-05-03T08:45:25.340Z,16.15
2023-05-03T08:47:55.820Z,19.60
2023-05-03T08:50:27.341Z,11.80
2023-05-03T08:52:57.152Z,18.08
2023-05-03T08:55:26.400Z,14.90
2023-05-03T08:57:55.870Z,15.23
2023-05-03T09:00:30.780Z,13.52
2023-05-03T09:03:00.404Z,17.33
2023-05-03T09:05:34.232Z,12.45
2023-05-03T09:08:04.986Z,10.10
2023-05-03T09:10:34.422Z,11.13
2023-05-03T09:13:04.643Z,15.77
2023-05-03T09:15:36.281Z,15.77
2023-05-03T09:18:09.403Z,12.98
2023-05-03T09:20:39.685Z,10.73
2023-05-03T09:23:09.986Z,12.65
2023-05-03T09:25:43.422Z,11.35
2023-05-03T09:28:12.374Z,9.45
2023-05-03T09:30:43.597Z,9.20
2023-05-03T09:33:19.285Z,11.20
2023-05-03T09:35:59.766Z,13.90
2023-05-03T09:38:30.305Z,12.90
2023-05-03T09:40:59.508Z,16.23
2023-05-03T09:43:28.958Z,13.80
2023-05-03T09:46:11.415Z,14.23
2023-05-03T09:48:42.129Z,13.88
2023-05-03T09:51:13.342Z,13.05
2023-05-03T09:53:42.972Z,12.68
2023-05-03T09:56:14.511Z,13.02
2023-05-03T09:58:44.615Z,12.45
2023-05-03T10:01:17.340Z,11.63
2023-05-03T10:03:50.752Z,11.10
2023-05-03T10:06:26.855Z,12.65
2023-05-03T10:09:06.148Z,12.65
2023-05-03T10:11:37.653Z,13.00
2023-05-03T10:14:07.754Z,16.00
2023-05-03T10:16:42.004Z,11.10
2023-05-03T10:19:15.913Z,13.52
2023-05-03T10:21:56.850Z,13.55
2023-05-03T10:24:25.900Z,14.52
2023-05-03T10:26:57.671Z,11.02
2023-05-03T10:29:49.102Z,13.13
2023-05-03T10:32:36.945Z,12.30
2023-05-03T10:35:09.219Z,15.35
2023-05-03T10:40:12.051Z,14.50
2023-05-03T10:42:44.580Z,11.80
2023-05-03T10:45:25.443Z,18.52
2023-05-03T10:48:23.001Z,16.73
2023-05-03T10:50:53.250Z,14.60
2023-05-03T10:53:39.651Z,16.70
2023-05-03T10:56:10.155Z,14.70
2023-05-03T10:58:41.110Z,14.63
2023-05-03T11:01:12.389Z,14.32
2023-05-03T11:03:56.273Z,15.30
2023-05-03T11:06:33.952Z,12.15
2023-05-03T11:09:04.518Z,13.20
2023-05-03T11:11:33.921Z,14.23
2023-05-03T11:14:03.368Z,14.25
2023-05-03T11:16:32.507Z,15.30
2023-05-03T11:19:04.328Z,13.35
2023-05-03T11:21:34.275Z,21.08
2023-05-03T11:24:03.398Z,14.52
2023-05-03T11:26:37.532Z,12.93
2023-05-03T11:29:07.142Z,16.50
2023-05-03T11:31:36.738Z,13.75
2023-05-03T11:34:08.775Z,13.77
2023-05-03T11:36:37.904Z,12.68
2023-05-03T11:39:07.002Z,13.50
2023-05-03T11:41:36.337Z,15.85
2023-05-03T11:44:16.123Z,14.82
2023-05-03T11:46:48.499Z,15.55
2023-05-03T11:49:21.156Z,15.63
2023-05-03T11:51:53.679Z,15.27
2023-05-03T11:54:27.487Z,13.90
2023-05-03T11:56:59.741Z,14.35
2023-05-03T11:59:40.587Z,14.98
2023-05-03T12:02:13.514Z,16.02
2023-05-03T12:04:46.411Z,10.52
2023-05-03T12:07:18.581Z,15.60
2023-05-03T12:10:00.983Z,11.30
2023-05-03T12:12:42.547Z,11.45
2023-05-03T12:15:16.418Z,10.38
2023-05-03T12:17:48.958Z,11.88
2023-05-03T12:22:57.990Z,11.43
2023-05-03T12:25:33.042Z,11.43
2023-05-03T12:30:37.122Z,14.70
2023-05-03T12:33:10.401Z,11.85
2023-05-03T12:35:41.692Z,9.48
2023-05-03T12:38:11.016Z,11.27
2023-05-03T12:40:40.958Z,11.55
2023-05-03T12:43:10.439Z,13.65
2023-05-03T12:45:40.891Z,9.93
2023-05-03T12:48:10.490Z,11.52
2023-05-03T12:50:44.833Z,13.40
2023-05-03T12:53:16.976Z,27.35
2023-05-03T12:55:51.224Z,11.45
2023-05-03T13:03:31.965Z,13.80
2023-05-03T13:11:14.790Z,10.63
2023-05-03T13:13:43.706Z,12.75
2023-05-03T13:16:13.353Z,11.98
2023-05-03T13:18:45.547Z,11.18
2023-05-03T13:21:16.067Z,13.90
2023-05-03T13:23:46.183Z,13.52
2023-05-03T13:26:16.640Z,11.88
2023-05-03T13:28:45.941Z,9.10
2023-05-03T13:31:14.590Z,12.20
2023-05-03T13:33:43.719Z,9.02
2023-05-03T13:36:12.469Z,9.82
2023-05-03T13:38:43.003Z,13.20
2023-05-03T13:41:11.970Z,13.02
2023-05-03T13:43:42.171Z,7.68
2023-05-03T13:46:11.435Z,9.98
2023-05-03T13:48:40.494Z,11.63
2023-05-03T13:51:10.709Z,12.15
2023-05-03T13:53:40.002Z,10.25
2023-05-03T13:56:10.891Z,13.43
2023-05-03T13:58:40.698Z,9.77
2023-05-03T14:01:09.941Z,12.35
2023-05-03T14:03:38.779Z,11.05
2023-05-03T14:06:09.016Z,13.88
2023-05-03T14:08:37.988Z,11.40
2023-05-03T14:11:06.940Z,9.80
2023-05-03T14:13:53.899Z,10.35
2023-05-03T14:16:38.814Z,11.70
2023-05-03T14:19:11.860Z,14.88
2023-05-03T14:21:42.368Z,10.55
2023-05-03T14:24:11.607Z,12.85
2023-05-03T14:26:40.457Z,10.00
2023-05-03T14:29:11.206Z,9.73
2023-05-03T14:31:40.276Z,12.77
2023-05-03T14:34:09.297Z,8.57
2023-05-03T14:36:43.681Z,9.75
2023-05-03T14:39:14.507Z,10.00
2023-05-03T14:41:46.294Z,9.02
2023-05-03T14:44:16.775Z,11.73
2023-05-03T14:46:46.944Z,8.60
2023-05-03T14:49:17.555Z,11.23
2023-05-03T14:51:47.642Z,7.93
2023-05-03T14:54:16.524Z,12.32
2023-05-03T14:56:45.611Z,9.80
2023-05-03T14:59:14.636Z,10.35
2023-05-03T15:01:45.062Z,11.10
2023-05-03T15:04:14.024Z,11.15
2023-05-03T15:06:43.088Z,12.27
2023-05-03T15:09:13.134Z,11.93
2023-05-03T15:11:42.136Z,9.23
2023-05-03T15:14:11.629Z,10.98
2023-05-03T15:16:41.111Z,9.20
2023-05-03T15:19:11.201Z,11.38
2023-05-03T15:21:50.636Z,11.63
2023-05-03T15:24:19.950Z,11.40
2023-05-03T15:26:49.192Z,12.13
2023-05-03T15:29:18.156Z,9.68
2023-05-03T15:31:47.962Z,9.95
2023-05-03T15:34:18.212Z,12.85
2023-05-03T15:36:47.350Z,10.00
2023-05-03T15:39:16.314Z,10.18
2023-05-03T15:41:45.818Z,11.75
2023-05-03T15:44:15.147Z,8.68
2023-05-03T15:46:44.772Z,11.52
2023-05-03T15:49:13.999Z,9.38
2023-05-03T15:51:44.295Z,9.00
2023-05-03T15:54:13.065Z,10.73
2023-05-03T15:56:41.920Z,11.52
2023-05-03T15:59:14.964Z,10.10
2023-05-03T16:01:43.838Z,11.25
2023-05-03T16:04:12.681Z,8.45
2023-05-03T16:06:42.350Z,8.40
2023-05-03T16:09:13.005Z,10.65
2023-05-03T16:11:42.061Z,9.30
2023-05-03T16:14:10.965Z,9.65
2023-05-03T16:16:40.347Z,10.52
2023-05-03T16:19:09.428Z,9.55
2023-05-03T16:21:38.423Z,11.55
2023-05-03T16:24:07.685Z,12.75
2023-05-03T16:26:38.458Z,10.32
2023-05-03T16:29:07.551Z,11.02
2023-05-03T16:31:36.742Z,9.25
2023-05-03T16:34:05.577Z,10.10
2023-05-03T16:36:34.441Z,9.60
2023-05-03T16:39:03.357Z,12.02
2023-05-03T16:41:32.257Z,8.35
2023-05-03T16:44:04.995Z,10.10
2023-05-03T16:46:35.175Z,9.32
2023-05-03T16:49:04.372Z,13.10
2023-05-03T16:51:33.814Z,11.32
2023-05-03T16:54:04.552Z,9.77
2023-05-03T16:56:33.608Z,8.55
2023-05-03T16:59:04.274Z,9.60
2023-05-03T17:01:33.463Z,12.00
2023-05-03T17:04:06.564Z,13.10
2023-05-03T17:06:35.551Z,14.23
2023-05-03T17:09:04.732Z,11.82
2023-05-03T17:11:34.002Z,11.25
2023-05-03T17:14:04.260Z,11.48
2023-05-03T17:16:33.309Z,10.50
2023-05-03T17:19:02.545Z,11.23
2023-05-03T17:21:31.516Z,13.90
2023-05-03T17:24:00.459Z,9.55
2023-05-03T17:26:29.274Z,11.07
2023-05-03T17:28:58.164Z,11.95
2023-05-03T17:31:28.428Z,14.10
2023-05-03T17:33:57.488Z,14.20
2023-05-03T17:36:27.269Z,13.38
2023-05-03T17:38:56.587Z,13.30
2023-05-03T17:41:25.473Z,12.48
2023-05-03T17:43:54.344Z,9.38
2023-05-03T17:46:23.941Z,11.50
2023-05-03T17:48:54.886Z,12.68
2023-05-03T17:51:23.707Z,11.23
2023-05-03T17:53:52.768Z,13.57
2023-05-03T17:56:21.536Z,9.35
2023-05-03T17:58:50.400Z,13.35
2023-05-03T18:01:19.347Z,9.38
2023-05-03T18:03:50.924Z,9.48
2023-05-03T18:06:21.476Z,11.90
2023-05-03T18:08:50.414Z,11.95
2023-05-03T18:11:19.495Z,9.77
2023-05-03T18:13:50.366Z,11.30
2023-05-03T18:16:19.307Z,10.65
2023-05-03T18:18:48.232Z,10.40
2023-05-03T18:21:18.772Z,9.32
2023-05-03T18:23:49.179Z,11.05
2023-05-03T18:26:18.361Z,9.48
2023-05-03T18:28:47.188Z,11.15
2023-05-03T18:31:16.181Z,9.73
2023-05-03T18:33:45.081Z,8.63
2023-05-03T18:36:15.666Z,13.00
2023-05-03T18:38:46.825Z,11.30
2023-05-03T18:41:17.720Z,9.55
2023-05-03T18:43:48.064Z,10.27
2023-05-03T18:46:19.557Z,9.07
2023-05-03T18:48:49.245Z,9.77
2023-05-03T18:51:19.132Z,9.48
2023-05-03T18:53:50.041Z,9.43
2023-05-03T18:56:20.460Z,7.50
2023-05-03T18:58:49.293Z,8.32
2023-05-03T19:01:18.536Z,9.85
2023-05-03T19:03:47.510Z,10.38
2023-05-03T19:06:16.553Z,10.63
2023-05-03T19:08:47.001Z,8.10
2023-05-03T19:11:17.184Z,8.55
2023-05-03T19:13:49.408Z,13.05
2023-05-03T19:16:18.705Z,9.93
2023-05-03T19:18:50.824Z,10.57
2023-05-03T19:21:20.509Z,10.13
2023-05-03T19:23:51.547Z,11.32
2023-05-03T19:26:20.396Z,10.48
2023-05-03T19:28:50.780Z,8.73
2023-05-03T19:31:19.890Z,11.32
2023-05-03T19:33:48.929Z,7.90
2023-05-03T19:36:17.795Z,11.20
2023-05-03T19:38:46.712Z,9.82
2023-05-03T19:41:15.566Z,9.02
2023-05-03T19:43:44.534Z,10.40
2023-05-03T19:46:16.477Z,8.30
2023-05-03T19:48:45.587Z,8.32
2023-05-03T19:51:15.117Z,9.63
2023-05-03T19:53:45.109Z,7.85
2023-05-03T19:56:17.873Z,10.02
2023-05-03T19:58:46.819Z,8.38
2023-05-03T20:01:17.283Z,11.00
2023-05-03T20:03:46.844Z,7.72
2023-05-03T20:06:16.149Z,12.77
2023-05-03T20:08:45.066Z,13.40
2023-05-03T20:11:14.316Z,9.88
2023-05-03T20:13:43.182Z,7.63
2023-05-03T20:16:13.006Z,6.60
2023-05-03T20:18:43.726Z,9.13
2023-05-03T20:21:13.987Z,7.72
2023-05-03T20:23:43.014Z,10.48
2023-05-03T20:26:12.012Z,8.32
2023-05-03T20:28:40.797Z,10.57
2023-05-03T20:31:10.987Z,9.80
2023-05-03T20:33:39.893Z,9.88
2023-05-03T20:36:10.213Z,12.05
2023-05-03T20:38:39.220Z,9.75
2023-05-03T20:41:08.081Z,9.73
2023-05-03T20:43:37.122Z,10.55
2023-05-03T20:46:06.292Z,9.25
2023-05-03T20:48:35.223Z,9.50
2023-05-03T20:51:04.191Z,9.35
2023-05-03T20:53:34.637Z,8.05
2023-05-03T20:56:07.922Z,10.98
2023-05-03T20:58:36.982Z,20.65
2023-05-03T21:01:06.977Z,11.23
2023-05-03T21:03:36.411Z,10.07
2023-05-03T21:06:06.836Z,7.95
2023-05-03T21:08:37.596Z,11.75
2023-05-03T21:11:06.804Z,9.20
2023-05-03T21:13:36.189Z,9.43
2023-05-03T21:16:07.986Z,9.02
2023-05-03T21:18:37.741Z,8.98
2023-05-03T21:21:06.642Z,11.88
2023-05-03T21:23:36.841Z,10.82
2023-05-03T21:26:06.295Z,10.13
2023-05-03T21:28:35.122Z,9.60
2023-05-03T21:31:06.754Z,10.57
2023-05-03T21:33:35.731Z,11.77
2023-05-03T21:36:05.142Z,9.60
2023-05-03T21:38:34.079Z,11.40
2023-05-03T21:41:08.262Z,10.35
2023-05-03T21:43:40.286Z,6.22
2023-05-03T21:46:09.390Z,7.20
2023-05-03T21:48:38.282Z,10.38
2023-05-03T21:51:07.356Z,8.05
2023-05-03T21:53:36.213Z,8.73
2023-05-03T21:56:06.846Z,10.48
2023-05-03T21:58:36.124Z,7.35
2023-05-03T22:01:05.203Z,9.85
2023-05-03T22:03:34.208Z,9.38
2023-05-03T22:06:04.034Z,9.60
2023-05-03T22:08:32.909Z,9.48
2023-05-03T22:11:01.895Z,9.73
2023-05-03T22:13:32.394Z,9.00
2023-05-03T22:16:06.134Z,9.40
2023-05-03T22:18:35.814Z,8.73
2023-05-03T22:21:06.473Z,12.13
2023-05-03T22:23:36.593Z,8.05
2023-05-03T22:26:05.646Z,9.15
2023-05-03T22:28:36.753Z,10.93
2023-05-03T22:31:06.345Z,10.80
2023-05-03T22:33:35.682Z,8.32
2023-05-03T22:36:04.964Z,8.82
2023-05-03T22:38:34.050Z,9.57
2023-05-03T22:41:06.012Z,7.32
2023-05-03T22:43:36.526Z,10.07
2023-05-03T22:46:05.484Z,8.07
2023-05-03T22:48:34.257Z,10.70
2023-05-03T22:51:06.249Z,8.00
2023-05-03T22:53:35.317Z,8.82
2023-05-03T22:56:05.660Z,8.15
2023-05-03T22:58:36.232Z,9.70
2023-05-03T23:01:05.714Z,8.32
2023-05-03T23:03:36.481Z,8.38
2023-05-03T23:06:05.839Z,8.73
2023-05-03T23:08:34.750Z,10.27
2023-05-03T23:11:03.659Z,10.25
2023-05-03T23:13:32.754Z,10.25
2023-05-03T23:16:03.460Z,9.63
2023-05-03T23:18:35.404Z,10.20
2023-05-03T23:21:04.618Z,10.68
2023-05-03T23:23:33.691Z,9.35
2023-05-03T23:26:02.598Z,7.82
2023-05-03T23:28:32.252Z,10.35
2023-05-03T23:31:03.121Z,7.00
2023-05-03T23:33:32.691Z,8.73
2023-05-03T23:36:01.535Z,8.05
2023-05-03T23:38:33.466Z,7.82
2023-05-03T23:41:02.487Z,7.75
2023-05-03T23:43:31.617Z,8.63
2023-05-03T23:46:02.069Z,11.65
2023-05-03T23:48:31.646Z,11.93
2023-05-03T23:51:00.538Z,11.45
2023-05-03T23:53:29.348Z,9.38
2023-05-03T23:55:58.287Z,8.25
2023-05-03T23:58:27.103Z,9.93
